Tuesday, January 16, 2018, 12:15 PM EST
Back to Local

KBAF, Westfield Barnes Municipal

Location: Westfield, MA, United States Lat: 42.167
Local Time: 12:15 PM EST (17:15 GMT) Lon: -72.717
Time Zone: US/Eastern Elev: 272 ft

Show me the last for .
Show Decoded

2018-01-16 11:53 METAR KBAF 161653Z 21004KT 10SM FEW030 BKN037 OVC055 M02/M07 A3046 RMK AO2
                 SLP325 T10221072 =
2018-01-16 11:12 METAR KBAF 161612Z 16005KT 10SM SCT023 BKN036 OVC100 M03/M09 A3049 RMK AO2
                 T10331089 =
2018-01-16 10:53 METAR KBAF 161553Z 17006KT 10SM BKN022 M03/M09 A3050 RMK AO2 SLP336 T10331094 =
2018-01-16 10:51 METAR KBAF 161551Z 19005KT 10SM BKN022 M03/M09 A3050 RMK AO2 =
2018-01-16 09:53 METAR KBAF 161453Z 18006KT 10SM BKN036 M04/M11 A3051 RMK AO2 SLP342 T10441106
                 51008 =
2018-01-16 09:10 METAR KBAF 161410Z 00000KT 10SM SCT021 M06/M11 A3052 RMK AO2 T10561111 =
2018-01-16 08:53 METAR KBAF 161353Z 00000KT 10SM OVC022 M06/M12 A3051 RMK AO2 SLP341 T10611117 =
2018-01-16 07:53 METAR KBAF 161253Z 00000KT 10SM BKN023 OVC033 M07/M11 A3050 RMK AO2 SLP337
                 T10721111 =
2018-01-16 06:53 METAR KBAF 161153Z 36003KT 10SM BKN025 BKN042 OVC070 M07/M13 A3049 RMK AO2
                 SLP334 T10671128 11067 21078 56001 =
2018-01-16 06:46 METAR KBAF 161146Z 02003KT 10SM SCT025 BKN042 OVC070 M07/M13 A3049 RMK AO2
                 T10671128 =
2018-01-16 05:53 METAR KBAF 161053Z AUTO 01003KT 10SM OVC025 M07/M13 A3049 RMK AO2 SLP335
                 T10671133 =
2018-01-16 04:53 METAR KBAF 160953Z AUTO 34004KT 10SM OVC027 M07/M13 A3049 RMK AO2 SLP334
                 T10671133 =
2018-01-16 04:12 METAR KBAF 160912Z AUTO 35003KT 10SM BKN029 OVC044 M07/M13 A3049 RMK AO2
                 T10671128 =
2018-01-16 03:53 METAR KBAF 160853Z AUTO 34004KT 10SM FEW030 OVC045 M07/M13 A3049 RMK AO2 SLP336
                 T10671133 51000 =
2018-01-16 02:53 METAR KBAF 160753Z AUTO 34005KT 10SM BKN047 M07/M13 A3050 RMK AO2 SLP336
                 T10671133 =
2018-01-16 01:53 METAR KBAF 160653Z AUTO 36005KT 10SM OVC030 M07/M14 A3049 RMK AO2 SLP336
                 T10671139 =
2018-01-16 00:53 METAR KBAF 160553Z AUTO 01006KT 10SM OVC032 M07/M13 A3049 RMK AO2 SLP335
                 T10671133 11061 21067 56016 =
2018-01-15 23:53 METAR KBAF 160453Z AUTO 36005KT 10SM OVC034 M07/M14 A3050 RMK AO2 SLP338
                 T10671139 410611128 =
2018-01-15 22:53 METAR KBAF 160353Z AUTO 01006KT 10SM OVC034 M07/M14 A3052 RMK AO2 SLP345
                 T10671139 =
2018-01-15 21:53 METAR KBAF 160253Z 36006KT 10SM OVC033 M06/M14 A3054 RMK AO2 SLP352 T10611144
                 56010 =
2018-01-15 20:53 METAR KBAF 160153Z 01007KT 10SM OVC033 M06/M16 A3055 RMK AO2 SLP356 T10611161 =
2018-01-15 19:53 METAR KBAF 160053Z 36006KT 10SM FEW021 OVC035 M06/M16 A3055 RMK AO2 SLP355
                 T10611161 =
2018-01-15 19:42 METAR KBAF 160042Z 01006KT 10SM SCT021 OVC035 M06/M16 A3055 RMK AO2 T10611161 =
2018-01-15 18:53 METAR KBAF 152353Z 36007KT 10SM OVC022 M06/M17 A3057 RMK AO2 SLP363 T10611167
                 11061 21067 56004 =
2018-01-15 17:53 METAR KBAF 152253Z 36007KT 10SM OVC023 M06/M17 A3058 RMK AO2 SLP365 T10611167 =
2018-01-15 16:53 METAR KBAF 152153Z 01008KT 10SM OVC022 M07/M17 A3057 RMK AO2 SLP363 T10671167 =
2018-01-15 15:53 METAR KBAF 152053Z 02007KT 10SM OVC023 M07/M17 A3058 RMK AO2 SLP367 T10671172
                 56008 =
2018-01-15 14:53 METAR KBAF 151953Z 04007KT 10SM OVC025 M07/M16 A3058 RMK AO2 SLP367 T10671161 =
2018-01-15 13:53 METAR KBAF 151853Z 04006KT 10SM OVC023 M06/M14 A3059 RMK AO2 SLP369 T10611139 =
2018-01-15 12:53 METAR KBAF 151753Z 01007KT 10SM OVC028 M07/M14 A3061 RMK AO2 PRESFR SLP375
                 T10671144 11067 21128 58047 =
2018-01-15 12:20 METAR KBAF 151720Z 36012KT 10SM BKN026 M07/M14 A3063 RMK AO2 T10671144 =

Support USWX by starting your Amazon purchase here.